CMP894 SKSP-MPTO
Flight info
| Callsign | CMP894 |
|---|---|
| Flight time | 0h 52m |
| Altitude | 35000 |
| Route | BIXOX2B BIXOX DCT MORLI DCT OSUPA OSUPA2A |
| Aircraft | B738/M-SDE2E3GHIJ4J7RWZ/LB1D1 |
Departure
| Time | 2026-05-04 01:36 |
|---|---|
| Airport | Gustavo Rojas Pinilla International Airport (SKSP) |
Arrival
| Time | 2026-05-04 02:29 |
|---|---|
| Airport | Tocumen International Airport (MPTO) |
| Time | Latitude | Longitude | Altitude | Speed | Heading |
|---|---|---|---|---|---|
| 2026-05-04 01:11 | 12.58645 | -81.70306 | 20 ft | 0 kts | 150° |
| 2026-05-04 01:27 | 12.58653 | -81.70310 | 20 ft | 2 kts | 150° |
| 2026-05-04 01:27 | 12.58666 | -81.70318 | 20 ft | 2 kts | 150° |
| 2026-05-04 01:27 | 12.58679 | -81.70325 | 20 ft | 2 kts | 162° |
| 2026-05-04 01:27 | 12.58694 | -81.70327 | 20 ft | 2 kts | 186° |
| 2026-05-04 01:28 | 12.58709 | -81.70322 | 20 ft | 2 kts | 209° |
| 2026-05-04 01:28 | 12.58720 | -81.70313 | 20 ft | 2 kts | 230° |
| 2026-05-04 01:28 | 12.58725 | -81.70306 | 20 ft | 1 kts | 244° |
| 2026-05-04 01:28 | 12.58727 | -81.70303 | 20 ft | 0 kts | 242° |
| 2026-05-04 01:31 | 12.58717 | -81.70321 | 20 ft | 3 kts | 242° |
| 2026-05-04 01:31 | 12.58709 | -81.70342 | 20 ft | 3 kts | 259° |
| 2026-05-04 01:31 | 12.58713 | -81.70372 | 21 ft | 6 kts | 288° |
| 2026-05-04 01:32 | 12.58733 | -81.70421 | 22 ft | 8 kts | 288° |
| 2026-05-04 01:32 | 12.58726 | -81.70489 | 23 ft | 11 kts | 244° |
| 2026-05-04 01:32 | 12.58681 | -81.70567 | 24 ft | 14 kts | 240° |
| 2026-05-04 01:32 | 12.58623 | -81.70669 | 24 ft | 18 kts | 239° |
| 2026-05-04 01:33 | 12.58550 | -81.70797 | 26 ft | 21 kts | 240° |
| 2026-05-04 01:33 | 12.58468 | -81.70940 | 27 ft | 25 kts | 240° |
| 2026-05-04 01:33 | 12.58370 | -81.71108 | 27 ft | 29 kts | 238° |
| 2026-05-04 01:33 | 12.58259 | -81.71292 | 27 ft | 30 kts | 239° |
| 2026-05-04 01:34 | 12.58156 | -81.71466 | 27 ft | 25 kts | 239° |
| 2026-05-04 01:34 | 12.58067 | -81.71624 | 27 ft | 24 kts | 241° |
| 2026-05-04 01:34 | 12.57991 | -81.71770 | 27 ft | 22 kts | 240° |
| 2026-05-04 01:34 | 12.57924 | -81.71886 | 26 ft | 16 kts | 239° |
| 2026-05-04 01:35 | 12.57885 | -81.71954 | 25 ft | 9 kts | 239° |
| 2026-05-04 01:35 | 12.57833 | -81.71998 | 24 ft | 10 kts | 212° |
| 2026-05-04 01:35 | 12.57840 | -81.72031 | 23 ft | 8 kts | 36° |
| 2026-05-04 01:35 | 12.57871 | -81.71979 | 24 ft | 9 kts | 59° |
| 2026-05-04 01:36 | 12.57982 | -81.71787 | 27 ft | 55 kts | 58° |
| 2026-05-04 01:36 | 12.58272 | -81.71285 | 27 ft | 110 kts | 61° |
| 2026-05-04 01:36 | 12.58748 | -81.70453 | 34 ft | 158 kts | 58° |
| 2026-05-04 01:36 | 12.59299 | -81.69500 | 648 ft | 152 kts | 59° |
| 2026-05-04 01:37 | 12.59843 | -81.68556 | 1151 ft | 160 kts | 58° |
| 2026-05-04 01:37 | 12.60445 | -81.67647 | 1743 ft | 148 kts | 56° |
| 2026-05-04 01:37 | 12.61017 | -81.66744 | 1926 ft | 165 kts | 64° |
| 2026-05-04 01:37 | 12.61068 | -81.65544 | 2431 ft | 186 kts | 108° |
| 2026-05-04 01:38 | 12.60126 | -81.64565 | 2961 ft | 213 kts | 148° |
| 2026-05-04 01:38 | 12.58590 | -81.64260 | 3471 ft | 238 kts | 177° |
| 2026-05-04 01:38 | 12.56865 | -81.64384 | 4009 ft | 258 kts | 180° |
| 2026-05-04 01:38 | 12.55021 | -81.64474 | 4675 ft | 262 kts | 177° |
| 2026-05-04 01:39 | 12.53197 | -81.64484 | 4865 ft | 272 kts | 175° |
| 2026-05-04 01:39 | 12.51241 | -81.64449 | 5523 ft | 284 kts | 175° |
| 2026-05-04 01:39 | 12.49258 | -81.64410 | 6465 ft | 285 kts | 175° |
| 2026-05-04 01:39 | 12.47302 | -81.64199 | 7246 ft | 287 kts | 162° |
| 2026-05-04 01:40 | 12.45456 | -81.63436 | 8030 ft | 286 kts | 147° |
| 2026-05-04 01:40 | 12.43731 | -81.62392 | 8799 ft | 290 kts | 144° |
| 2026-05-04 01:40 | 12.42007 | -81.61301 | 9556 ft | 295 kts | 144° |
| 2026-05-04 01:40 | 12.40227 | -81.60216 | 10344 ft | 299 kts | 146° |
| 2026-05-04 01:41 | 12.38372 | -81.59125 | 10824 ft | 314 kts | 147° |
| 2026-05-04 01:41 | 12.36422 | -81.58003 | 11281 ft | 329 kts | 148° |
| 2026-05-04 01:41 | 12.34379 | -81.56834 | 11705 ft | 344 kts | 148° |
| 2026-05-04 01:41 | 12.32230 | -81.55608 | 12296 ft | 353 kts | 148° |
| 2026-05-04 01:42 | 12.30080 | -81.54383 | 13091 ft | 355 kts | 148° |
| 2026-05-04 01:42 | 12.27914 | -81.53148 | 13872 ft | 358 kts | 148° |
| 2026-05-04 01:42 | 12.25741 | -81.51907 | 14615 ft | 361 kts | 149° |
| 2026-05-04 01:42 | 12.23539 | -81.50648 | 15380 ft | 364 kts | 149° |
| 2026-05-04 01:43 | 12.21299 | -81.49367 | 16141 ft | 367 kts | 149° |
| 2026-05-04 01:43 | 12.19064 | -81.48089 | 16867 ft | 370 kts | 149° |
| 2026-05-04 01:43 | 12.16810 | -81.46799 | 17553 ft | 374 kts | 149° |
| 2026-05-04 01:43 | 12.14527 | -81.45493 | 18207 ft | 378 kts | 150° |
| 2026-05-04 01:44 | 12.12229 | -81.44179 | 18848 ft | 381 kts | 150° |
| 2026-05-04 01:44 | 12.09893 | -81.42844 | 19439 ft | 386 kts | 150° |
| 2026-05-04 01:44 | 12.07531 | -81.41495 | 19987 ft | 391 kts | 151° |
| 2026-05-04 01:44 | 12.05175 | -81.40150 | 20605 ft | 394 kts | 151° |
| 2026-05-04 01:45 | 12.02750 | -81.38766 | 21122 ft | 399 kts | 151° |
| 2026-05-04 01:45 | 12.00317 | -81.37377 | 21660 ft | 403 kts | 152° |
| 2026-05-04 01:45 | 11.95375 | -81.34558 | 22729 ft | 410 kts | 152° |
| 2026-05-04 01:46 | 11.92884 | -81.33138 | 23231 ft | 414 kts | 152° |
| 2026-05-04 01:46 | 11.90361 | -81.31699 | 23709 ft | 418 kts | 152° |
| 2026-05-04 01:46 | 11.87786 | -81.30230 | 24209 ft | 422 kts | 152° |
| 2026-05-04 01:46 | 11.85229 | -81.28772 | 24698 ft | 425 kts | 152° |
| 2026-05-04 01:47 | 11.82644 | -81.27297 | 25205 ft | 428 kts | 152° |
| 2026-05-04 01:47 | 11.80037 | -81.25811 | 25639 ft | 432 kts | 152° |
| 2026-05-04 01:47 | 11.77380 | -81.24297 | 26103 ft | 435 kts | 152° |
| 2026-05-04 01:47 | 11.74727 | -81.22784 | 26540 ft | 439 kts | 152° |
| 2026-05-04 01:48 | 11.72072 | -81.21272 | 27003 ft | 441 kts | 152° |
| 2026-05-04 01:48 | 11.69351 | -81.19722 | 27427 ft | 445 kts | 152° |
| 2026-05-04 01:48 | 11.66667 | -81.18192 | 27876 ft | 447 kts | 152° |
| 2026-05-04 01:48 | 11.63932 | -81.16635 | 28474 ft | 446 kts | 151° |
| 2026-05-04 01:49 | 11.61233 | -81.15097 | 29155 ft | 442 kts | 151° |
| 2026-05-04 01:49 | 11.58561 | -81.13576 | 29764 ft | 440 kts | 151° |
| 2026-05-04 01:49 | 11.55901 | -81.12061 | 30332 ft | 439 kts | 151° |
| 2026-05-04 01:49 | 11.53227 | -81.10530 | 30872 ft | 438 kts | 151° |
| 2026-05-04 01:50 | 11.50605 | -81.09018 | 31435 ft | 436 kts | 150° |
| 2026-05-04 01:50 | 11.47951 | -81.07482 | 31952 ft | 435 kts | 150° |
| 2026-05-04 01:50 | 11.45308 | -81.05951 | 32455 ft | 434 kts | 150° |
| 2026-05-04 01:50 | 11.42685 | -81.04432 | 32896 ft | 434 kts | 150° |
| 2026-05-04 01:51 | 11.37401 | -81.01376 | 32925 ft | 432 kts | 150° |
| 2026-05-04 01:51 | 11.32168 | -80.98354 | 32926 ft | 432 kts | 150° |
| 2026-05-04 01:52 | 11.26899 | -80.95313 | 32926 ft | 432 kts | 150° |
| 2026-05-04 01:52 | 11.21673 | -80.92300 | 32924 ft | 433 kts | 150° |
| 2026-05-04 01:53 | 11.16388 | -80.89254 | 32924 ft | 434 kts | 150° |
| 2026-05-04 01:53 | 11.11131 | -80.86225 | 32926 ft | 434 kts | 150° |
| 2026-05-04 01:54 | 11.05741 | -80.83121 | 33122 ft | 451 kts | 150° |
| 2026-05-04 01:54 | 11.03020 | -80.81554 | 33669 ft | 449 kts | 150° |
| 2026-05-04 01:54 | 11.00293 | -80.79986 | 34418 ft | 443 kts | 150° |
| 2026-05-04 01:55 | 10.97619 | -80.78448 | 34951 ft | 441 kts | 150° |
| 2026-05-04 01:55 | 10.94941 | -80.76907 | 35444 ft | 440 kts | 150° |
| 2026-05-04 01:55 | 10.92274 | -80.75374 | 35873 ft | 440 kts | 150° |
| 2026-05-04 01:55 | 10.89586 | -80.73829 | 35920 ft | 444 kts | 150° |
| 2026-05-04 01:56 | 10.84212 | -80.70740 | 35920 ft | 438 kts | 150° |
| 2026-05-04 01:56 | 10.78882 | -80.67675 | 35920 ft | 439 kts | 150° |
| 2026-05-04 01:57 | 10.73516 | -80.64593 | 35911 ft | 439 kts | 150° |
| 2026-05-04 01:57 | 10.68519 | -80.61085 | 35905 ft | 438 kts | 137° |
| 2026-05-04 01:58 | 10.64451 | -80.56484 | 35905 ft | 440 kts | 128° |
| 2026-05-04 01:58 | 10.60481 | -80.51759 | 35901 ft | 439 kts | 142° |
| 2026-05-04 01:59 | 10.55310 | -80.48360 | 35899 ft | 440 kts | 141° |
| 2026-05-04 01:59 | 10.51202 | -80.43788 | 35904 ft | 439 kts | 126° |
| 2026-05-04 02:00 | 10.47702 | -80.38702 | 35905 ft | 439 kts | 124° |
| 2026-05-04 02:00 | 10.44283 | -80.33566 | 35904 ft | 439 kts | 124° |
| 2026-05-04 02:01 | 10.40835 | -80.28475 | 35905 ft | 438 kts | 125° |
| 2026-05-04 02:01 | 10.37348 | -80.23411 | 35904 ft | 439 kts | 125° |
| 2026-05-04 02:02 | 10.33824 | -80.18336 | 35904 ft | 439 kts | 125° |
| 2026-05-04 02:02 | 10.30312 | -80.13296 | 35905 ft | 439 kts | 125° |
| 2026-05-04 02:03 | 10.26760 | -80.08204 | 35905 ft | 439 kts | 125° |
| 2026-05-04 02:03 | 10.23229 | -80.03144 | 35906 ft | 440 kts | 125° |
| 2026-05-04 02:04 | 10.19702 | -79.98093 | 35874 ft | 438 kts | 125° |
| 2026-05-04 02:04 | 10.17957 | -79.95596 | 35574 ft | 432 kts | 125° |
| 2026-05-04 02:04 | 10.16227 | -79.93118 | 35095 ft | 427 kts | 125° |
| 2026-05-04 02:05 | 10.14518 | -79.90673 | 34500 ft | 425 kts | 125° |
| 2026-05-04 02:05 | 10.12836 | -79.88265 | 33964 ft | 421 kts | 125° |
| 2026-05-04 02:05 | 10.11149 | -79.85851 | 33501 ft | 416 kts | 125° |
| 2026-05-04 02:05 | 10.09484 | -79.83469 | 33002 ft | 412 kts | 125° |
| 2026-05-04 02:06 | 10.07834 | -79.81110 | 32506 ft | 408 kts | 125° |
| 2026-05-04 02:06 | 10.06192 | -79.78761 | 32044 ft | 405 kts | 125° |
| 2026-05-04 02:06 | 10.04575 | -79.76450 | 31555 ft | 402 kts | 125° |
| 2026-05-04 02:06 | 10.02953 | -79.74130 | 31051 ft | 400 kts | 125° |
| 2026-05-04 02:07 | 10.01365 | -79.71861 | 30559 ft | 398 kts | 124° |
| 2026-05-04 02:07 | 9.99768 | -79.69580 | 30062 ft | 396 kts | 125° |
| 2026-05-04 02:07 | 9.98171 | -79.67299 | 29562 ft | 394 kts | 124° |
| 2026-05-04 02:07 | 9.96593 | -79.65044 | 29064 ft | 391 kts | 124° |
| 2026-05-04 02:08 | 9.95019 | -79.62798 | 28578 ft | 389 kts | 125° |
| 2026-05-04 02:08 | 9.93462 | -79.60574 | 28098 ft | 387 kts | 125° |
| 2026-05-04 02:08 | 9.91903 | -79.58349 | 27609 ft | 385 kts | 125° |
| 2026-05-04 02:08 | 9.90371 | -79.56162 | 27125 ft | 383 kts | 125° |
| 2026-05-04 02:09 | 9.88835 | -79.53973 | 26650 ft | 381 kts | 126° |
| 2026-05-04 02:09 | 9.87216 | -79.51838 | 26158 ft | 379 kts | 131° |
| 2026-05-04 02:09 | 9.85319 | -79.50018 | 25772 ft | 373 kts | 144° |
| 2026-05-04 02:09 | 9.83111 | -79.48695 | 25361 ft | 369 kts | 153° |
| 2026-05-04 02:10 | 9.80789 | -79.47591 | 24895 ft | 367 kts | 156° |
| 2026-05-04 02:10 | 9.78437 | -79.46560 | 24432 ft | 365 kts | 157° |
| 2026-05-04 02:10 | 9.76103 | -79.45554 | 23972 ft | 363 kts | 157° |
| 2026-05-04 02:10 | 9.73776 | -79.44546 | 23515 ft | 361 kts | 157° |
| 2026-05-04 02:11 | 9.71503 | -79.43549 | 23072 ft | 359 kts | 157° |
| 2026-05-04 02:11 | 9.69223 | -79.42538 | 22626 ft | 357 kts | 157° |
| 2026-05-04 02:11 | 9.66936 | -79.41515 | 22177 ft | 355 kts | 157° |
| 2026-05-04 02:11 | 9.64694 | -79.40508 | 21743 ft | 353 kts | 157° |
| 2026-05-04 02:12 | 9.62437 | -79.39492 | 21300 ft | 351 kts | 156° |
| 2026-05-04 02:12 | 9.60225 | -79.38494 | 20854 ft | 350 kts | 156° |
| 2026-05-04 02:12 | 9.58034 | -79.37435 | 20383 ft | 349 kts | 152° |
| 2026-05-04 02:12 | 9.55941 | -79.36167 | 19879 ft | 349 kts | 147° |
| 2026-05-04 02:13 | 9.53944 | -79.34761 | 19368 ft | 350 kts | 144° |
| 2026-05-04 02:13 | 9.51998 | -79.33308 | 18915 ft | 348 kts | 143° |
| 2026-05-04 02:13 | 9.50076 | -79.31844 | 18557 ft | 342 kts | 142° |
| 2026-05-04 02:13 | 9.48185 | -79.30399 | 18181 ft | 338 kts | 142° |
| 2026-05-04 02:14 | 9.46288 | -79.28960 | 17752 ft | 336 kts | 142° |
| 2026-05-04 02:14 | 9.44433 | -79.27563 | 17367 ft | 333 kts | 142° |
| 2026-05-04 02:14 | 9.42580 | -79.26177 | 16966 ft | 330 kts | 142° |
| 2026-05-04 02:14 | 9.40734 | -79.24800 | 16548 ft | 328 kts | 142° |
| 2026-05-04 02:15 | 9.38889 | -79.23425 | 16132 ft | 326 kts | 142° |
| 2026-05-04 02:15 | 9.37069 | -79.22069 | 15719 ft | 325 kts | 142° |
| 2026-05-04 02:15 | 9.35254 | -79.20717 | 15304 ft | 323 kts | 142° |
| 2026-05-04 02:15 | 9.33433 | -79.19360 | 14886 ft | 321 kts | 142° |
| 2026-05-04 02:16 | 9.31639 | -79.18024 | 14477 ft | 319 kts | 142° |
| 2026-05-04 02:16 | 9.29862 | -79.16702 | 14076 ft | 318 kts | 142° |
| 2026-05-04 02:16 | 9.27991 | -79.15512 | 13652 ft | 318 kts | 152° |
| 2026-05-04 02:16 | 9.25849 | -79.14928 | 13227 ft | 321 kts | 176° |
| 2026-05-04 02:17 | 9.23648 | -79.15308 | 12818 ft | 324 kts | 200° |
| 2026-05-04 02:17 | 9.21677 | -79.16444 | 12406 ft | 324 kts | 213° |
| 2026-05-04 02:17 | 9.19816 | -79.17729 | 11985 ft | 323 kts | 213° |
| 2026-05-04 02:17 | 9.17958 | -79.18991 | 11557 ft | 321 kts | 213° |
| 2026-05-04 02:18 | 9.16110 | -79.20227 | 11145 ft | 314 kts | 212° |
| 2026-05-04 02:18 | 9.14301 | -79.21431 | 10745 ft | 309 kts | 212° |
| 2026-05-04 02:18 | 9.12505 | -79.22629 | 10334 ft | 304 kts | 213° |
| 2026-05-04 02:18 | 9.10760 | -79.23795 | 9987 ft | 297 kts | 213° |
| 2026-05-04 02:19 | 9.09071 | -79.24928 | 9802 ft | 285 kts | 213° |
| 2026-05-04 02:19 | 9.07435 | -79.26026 | 9407 ft | 283 kts | 213° |
| 2026-05-04 02:19 | 9.05783 | -79.27132 | 9037 ft | 280 kts | 213° |
| 2026-05-04 02:19 | 9.04167 | -79.28214 | 8680 ft | 276 kts | 213° |
| 2026-05-04 02:20 | 9.02556 | -79.29291 | 8346 ft | 283 kts | 213° |
| 2026-05-04 02:20 | 9.00843 | -79.30345 | 7911 ft | 289 kts | 209° |
| 2026-05-04 02:20 | 8.99081 | -79.31315 | 7551 ft | 289 kts | 208° |
| 2026-05-04 02:20 | 8.97310 | -79.32259 | 7198 ft | 285 kts | 208° |
| 2026-05-04 02:21 | 8.95581 | -79.33188 | 6850 ft | 280 kts | 208° |
| 2026-05-04 02:21 | 8.93883 | -79.34114 | 6508 ft | 275 kts | 208° |
| 2026-05-04 02:21 | 8.92205 | -79.35039 | 6176 ft | 270 kts | 209° |
| 2026-05-04 02:21 | 8.90564 | -79.35947 | 5851 ft | 269 kts | 209° |
| 2026-05-04 02:22 | 8.88922 | -79.36855 | 5512 ft | 267 kts | 209° |
| 2026-05-04 02:22 | 8.87302 | -79.37751 | 5173 ft | 263 kts | 209° |
| 2026-05-04 02:22 | 8.85734 | -79.38702 | 4843 ft | 257 kts | 217° |
| 2026-05-04 02:22 | 8.84540 | -79.39991 | 4542 ft | 247 kts | 244° |
| 2026-05-04 02:23 | 8.84161 | -79.41607 | 4414 ft | 228 kts | 274° |
| 2026-05-04 02:23 | 8.84362 | -79.43146 | 4213 ft | 217 kts | 287° |
| 2026-05-04 02:23 | 8.84935 | -79.44494 | 4021 ft | 203 kts | 310° |
| 2026-05-04 02:23 | 8.85925 | -79.45453 | 3966 ft | 193 kts | 323° |
| 2026-05-04 02:24 | 8.86960 | -79.46340 | 3895 ft | 197 kts | 321° |
| 2026-05-04 02:24 | 8.88009 | -79.47231 | 3668 ft | 196 kts | 328° |
| 2026-05-04 02:24 | 8.89251 | -79.47714 | 3423 ft | 188 kts | 357° |
| 2026-05-04 02:24 | 8.90518 | -79.47477 | 3236 ft | 187 kts | 24° |
| 2026-05-04 02:25 | 8.91597 | -79.46779 | 2901 ft | 179 kts | 33° |
| 2026-05-04 02:25 | 8.92608 | -79.46149 | 2674 ft | 165 kts | 29° |
| 2026-05-04 02:25 | 8.93593 | -79.45579 | 2464 ft | 161 kts | 29° |
| 2026-05-04 02:25 | 8.94553 | -79.45026 | 2279 ft | 158 kts | 28° |
| 2026-05-04 02:26 | 8.95493 | -79.44490 | 2030 ft | 149 kts | 27° |
| 2026-05-04 02:26 | 8.96376 | -79.43991 | 1861 ft | 142 kts | 27° |
| 2026-05-04 02:26 | 8.97241 | -79.43500 | 1673 ft | 143 kts | 27° |
| 2026-05-04 02:26 | 8.98119 | -79.43005 | 1486 ft | 143 kts | 27° |
| 2026-05-04 02:27 | 8.99003 | -79.42505 | 1297 ft | 144 kts | 27° |
| 2026-05-04 02:27 | 8.99893 | -79.42002 | 1102 ft | 145 kts | 28° |
| 2026-05-04 02:27 | 9.00781 | -79.41500 | 913 ft | 146 kts | 27° |
| 2026-05-04 02:27 | 9.01674 | -79.40994 | 722 ft | 147 kts | 28° |
| 2026-05-04 02:28 | 9.02576 | -79.40485 | 534 ft | 148 kts | 28° |
| 2026-05-04 02:28 | 9.03484 | -79.39974 | 345 ft | 149 kts | 28° |
| 2026-05-04 02:28 | 9.04384 | -79.39465 | 141 ft | 150 kts | 28° |
| 2026-05-04 02:28 | 9.05301 | -79.38952 | 40 ft | 145 kts | 29° |
| 2026-05-04 02:29 | 9.06174 | -79.38459 | 46 ft | 140 kts | 29° |
| 2026-05-04 02:29 | 9.06924 | -79.38018 | 49 ft | 87 kts | 36° |
| 2026-05-04 02:29 | 9.07197 | -79.37996 | 52 ft | 19 kts | 306° |
| 2026-05-04 02:29 | 9.07187 | -79.38066 | 54 ft | 6 kts | 217° |
| 2026-05-04 02:30 | 9.07163 | -79.38081 | 54 ft | 1 kts | 212° |
| 2026-05-04 02:30 | 9.07142 | -79.38094 | 53 ft | 6 kts | 211° |
| 2026-05-04 02:30 | 9.07092 | -79.38123 | 53 ft | 5 kts | 210° |
| 2026-05-04 02:30 | 9.07056 | -79.38145 | 53 ft | 6 kts | 210° |
| 2026-05-04 02:31 | 9.07020 | -79.38165 | 52 ft | 5 kts | 210° |
| 2026-05-04 02:31 | 9.06989 | -79.38184 | 53 ft | 4 kts | 210° |
| 2026-05-04 02:31 | 9.06968 | -79.38196 | 53 ft | 2 kts | 210° |
| 2026-05-04 02:31 | 9.06953 | -79.38205 | 53 ft | 1 kts | 214° |
| 2026-05-04 02:32 | 9.06944 | -79.38211 | 54 ft | 1 kts | 219° |
| 2026-05-04 02:32 | 9.06935 | -79.38221 | 54 ft | 3 kts | 228° |
| 2026-05-04 02:32 | 9.06920 | -79.38251 | 55 ft | 4 kts | 257° |
| 2026-05-04 02:32 | 9.06919 | -79.38254 | 55 ft | 0 kts | 260° |
| 2026-05-04 02:33 | 9.06915 | -79.38264 | 55 ft | 5 kts | 244° |
| 2026-05-04 02:33 | 9.06901 | -79.38287 | 55 ft | 0 kts | 234° |
| 2026-05-04 02:33 | 9.06882 | -79.38315 | 56 ft | 8 kts | 243° |
| 2026-05-04 02:34 | 9.06868 | -79.38367 | 56 ft | 6 kts | 253° |
| 2026-05-04 02:34 | 9.06862 | -79.38390 | 57 ft | 0 kts | 266° |
| 2026-05-04 02:34 | 9.06862 | -79.38393 | 57 ft | 0 kts | 264° |
| 2026-05-04 02:34 | 9.06858 | -79.38400 | 58 ft | 1 kts | 246° |
| 2026-05-04 02:35 | 9.06856 | -79.38406 | 58 ft | 1 kts | 244° |
| 2026-05-04 02:35 | 9.06844 | -79.38435 | 59 ft | 3 kts | 249° |
| 2026-05-04 02:35 | 9.06838 | -79.38451 | 59 ft | 1 kts | 250° |
| 2026-05-04 02:35 | 9.06836 | -79.38457 | 60 ft | 0 kts | 250° |
| 2026-05-04 02:36 | 9.06831 | -79.38470 | 60 ft | 1 kts | 250° |
| 2026-05-04 02:36 | 9.06830 | -79.38472 | 60 ft | 0 kts | 250° |